sensor_id;sensor_type;location;lat;lon;timestamp;P1;durP1;ratioP1;P2;durP2;ratioP2
68866;SDS011;56451;44.804;20.476;2024-02-04T00:02:20;31.85;;;17.15;;
68866;SDS011;56451;44.804;20.476;2024-02-04T00:05:07;27.85;;;15.68;;
68866;SDS011;56451;44.804;20.476;2024-02-04T00:07:53;31.45;;;16.27;;
68866;SDS011;56451;44.804;20.476;2024-02-04T00:10:39;29.77;;;16.83;;
68866;SDS011;56451;44.804;20.476;2024-02-04T00:13:53;29.15;;;15.95;;
68866;SDS011;56451;44.804;20.476;2024-02-04T00:16:39;27.90;;;16.13;;
68866;SDS011;56451;44.804;20.476;2024-02-04T00:19:26;31.10;;;16.58;;
68866;SDS011;56451;44.804;20.476;2024-02-04T00:22:12;30.77;;;16.42;;
68866;SDS011;56451;44.804;20.476;2024-02-04T00:24:58;27.90;;;16.57;;
68866;SDS011;56451;44.804;20.476;2024-02-04T00:27:46;30.30;;;16.35;;
68866;SDS011;56451;44.804;20.476;2024-02-04T00:30:38;27.60;;;16.52;;
68866;SDS011;56451;44.804;20.476;2024-02-04T00:33:24;28.17;;;16.25;;
68866;SDS011;56451;44.804;20.476;2024-02-04T00:36:16;35.58;;;16.40;;
68866;SDS011;56451;44.804;20.476;2024-02-04T00:39:02;30.47;;;16.57;;
68866;SDS011;56451;44.804;20.476;2024-02-04T00:41:48;31.30;;;16.50;;
68866;SDS011;56451;44.804;20.476;2024-02-04T00:44:36;31.63;;;16.52;;
68866;SDS011;56451;44.804;20.476;2024-02-04T00:47:22;31.92;;;15.95;;
68866;SDS011;56451;44.804;20.476;2024-02-04T00:50:08;29.42;;;15.30;;
68866;SDS011;56451;44.804;20.476;2024-02-04T00:52:57;28.20;;;15.63;;
68866;SDS011;56451;44.804;20.476;2024-02-04T00:55:45;29.88;;;15.40;;
68866;SDS011;56451;44.804;20.476;2024-02-04T00:58:31;23.50;;;14.43;;
68866;SDS011;56451;44.804;20.476;2024-02-04T01:01:18;25.92;;;15.00;;
68866;SDS011;56451;44.804;20.476;2024-02-04T01:04:24;27.58;;;14.15;;
68866;SDS011;56451;44.804;20.476;2024-02-04T01:07:10;24.70;;;13.40;;
68866;SDS011;56451;44.804;20.476;2024-02-04T01:09:56;24.58;;;14.38;;
68866;SDS011;56451;44.804;20.476;2024-02-04T01:12:25;27.80;;;14.95;;
68866;SDS011;56451;44.804;20.476;2024-02-04T01:15:13;26.48;;;13.27;;
68866;SDS011;56451;44.804;20.476;2024-02-04T01:17:59;27.88;;;14.38;;
68866;SDS011;56451;44.804;20.476;2024-02-04T01:20:46;26.40;;;14.70;;
68866;SDS011;56451;44.804;20.476;2024-02-04T01:23:32;24.58;;;14.30;;
68866;SDS011;56451;44.804;20.476;2024-02-04T01:26:07;29.95;;;15.80;;
68866;SDS011;56451;44.804;20.476;2024-02-04T01:28:53;24.20;;;13.80;;
68866;SDS011;56451;44.804;20.476;2024-02-04T01:31:40;25.92;;;14.00;;
68866;SDS011;56451;44.804;20.476;2024-02-04T01:34:26;26.00;;;14.73;;
68866;SDS011;56451;44.804;20.476;2024-02-04T01:37:12;27.83;;;14.95;;
68866;SDS011;56451;44.804;20.476;2024-02-04T01:39:59;26.63;;;14.18;;
68866;SDS011;56451;44.804;20.476;2024-02-04T01:42:44;29.20;;;16.02;;
68866;SDS011;56451;44.804;20.476;2024-02-04T01:45:35;30.13;;;14.52;;
68866;SDS011;56451;44.804;20.476;2024-02-04T01:48:21;24.63;;;14.10;;
68866;SDS011;56451;44.804;20.476;2024-02-04T01:51:10;28.08;;;14.43;;
68866;SDS011;56451;44.804;20.476;2024-02-04T01:54:01;30.10;;;14.65;;
68866;SDS011;56451;44.804;20.476;2024-02-04T01:56:49;29.70;;;15.73;;
68866;SDS011;56451;44.804;20.476;2024-02-04T01:59:38;29.30;;;15.27;;
68866;SDS011;56451;44.804;20.476;2024-02-04T02:02:25;26.17;;;14.07;;
68866;SDS011;56451;44.804;20.476;2024-02-04T02:05:12;27.95;;;14.75;;
68866;SDS011;56451;44.804;20.476;2024-02-04T02:07:58;26.33;;;15.50;;
68866;SDS011;56451;44.804;20.476;2024-02-04T02:10:46;29.35;;;15.88;;
68866;SDS011;56451;44.804;20.476;2024-02-04T02:13:34;28.33;;;16.27;;
68866;SDS011;56451;44.804;20.476;2024-02-04T02:16:25;29.33;;;14.63;;
68866;SDS011;56451;44.804;20.476;2024-02-04T02:25:13;26.92;;;15.07;;
68866;SDS011;56451;44.804;20.476;2024-02-04T02:27:59;30.92;;;15.30;;
68866;SDS011;56451;44.804;20.476;2024-02-04T02:30:46;27.73;;;15.23;;
68866;SDS011;56451;44.804;20.476;2024-02-04T02:33:34;29.10;;;14.55;;
68866;SDS011;56451;44.804;20.476;2024-02-04T02:36:21;22.15;;;14.18;;
68866;SDS011;56451;44.804;20.476;2024-02-04T02:42:09;23.98;;;13.90;;
68866;SDS011;56451;44.804;20.476;2024-02-04T02:44:57;24.37;;;14.43;;
68866;SDS011;56451;44.804;20.476;2024-02-04T02:47:44;24.70;;;14.05;;
68866;SDS011;56451;44.804;20.476;2024-02-04T02:50:32;27.50;;;14.15;;
68866;SDS011;56451;44.804;20.476;2024-02-04T02:53:18;25.35;;;13.02;;
68866;SDS011;56451;44.804;20.476;2024-02-04T02:56:05;25.20;;;13.65;;
68866;SDS011;56451;44.804;20.476;2024-02-04T02:58:42;23.43;;;12.80;;
68866;SDS011;56451;44.804;20.476;2024-02-04T03:01:31;23.70;;;12.93;;
68866;SDS011;56451;44.804;20.476;2024-02-04T03:04:17;25.52;;;12.50;;
68866;SDS011;56451;44.804;20.476;2024-02-04T03:06:47;23.13;;;12.60;;
68866;SDS011;56451;44.804;20.476;2024-02-04T03:09:36;22.05;;;12.48;;
68866;SDS011;56451;44.804;20.476;2024-02-04T03:12:25;21.33;;;11.67;;
68866;SDS011;56451;44.804;20.476;2024-02-04T03:14:52;19.80;;;12.02;;
68866;SDS011;56451;44.804;20.476;2024-02-04T03:17:38;23.70;;;12.27;;
68866;SDS011;56451;44.804;20.476;2024-02-04T03:20:27;22.58;;;12.32;;
68866;SDS011;56451;44.804;20.476;2024-02-04T03:22:54;21.30;;;11.63;;
68866;SDS011;56451;44.804;20.476;2024-02-04T03:25:41;20.60;;;11.63;;
68866;SDS011;56451;44.804;20.476;2024-02-04T03:28:29;18.95;;;11.77;;
68866;SDS011;56451;44.804;20.476;2024-02-04T03:31:19;23.75;;;11.52;;
68866;SDS011;56451;44.804;20.476;2024-02-04T03:34:06;17.02;;;10.82;;
68866;SDS011;56451;44.804;20.476;2024-02-04T03:36:53;19.80;;;10.43;;
68866;SDS011;56451;44.804;20.476;2024-02-04T03:39:39;17.57;;;9.67;;
68866;SDS011;56451;44.804;20.476;2024-02-04T03:42:25;19.40;;;9.65;;
68866;SDS011;56451;44.804;20.476;2024-02-04T03:45:14;17.88;;;10.60;;
68866;SDS011;56451;44.804;20.476;2024-02-04T03:48:00;18.35;;;9.68;;
68866;SDS011;56451;44.804;20.476;2024-02-04T03:50:46;17.67;;;9.75;;
68866;SDS011;56451;44.804;20.476;2024-02-04T03:53:33;18.20;;;10.03;;
68866;SDS011;56451;44.804;20.476;2024-02-04T03:56:19;19.08;;;9.77;;
68866;SDS011;56451;44.804;20.476;2024-02-04T03:59:07;15.30;;;9.40;;
68866;SDS011;56451;44.804;20.476;2024-02-04T04:01:54;20.98;;;10.45;;
68866;SDS011;56451;44.804;20.476;2024-02-04T04:04:40;17.58;;;10.00;;
68866;SDS011;56451;44.804;20.476;2024-02-04T04:07:29;16.73;;;8.83;;
68866;SDS011;56451;44.804;20.476;2024-02-04T04:10:16;16.17;;;9.40;;
68866;SDS011;56451;44.804;20.476;2024-02-04T04:13:03;17.25;;;8.95;;
68866;SDS011;56451;44.804;20.476;2024-02-04T04:15:50;13.95;;;8.73;;
68866;SDS011;56451;44.804;20.476;2024-02-04T04:18:38;14.45;;;8.38;;
68866;SDS011;56451;44.804;20.476;2024-02-04T04:21:24;13.50;;;8.07;;
68866;SDS011;56451;44.804;20.476;2024-02-04T04:24:10;15.05;;;7.80;;
68866;SDS011;56451;44.804;20.476;2024-02-04T04:26:59;12.20;;;7.57;;
68866;SDS011;56451;44.804;20.476;2024-02-04T04:29:45;16.10;;;7.53;;
68866;SDS011;56451;44.804;20.476;2024-02-04T04:32:31;12.75;;;6.78;;
68866;SDS011;56451;44.804;20.476;2024-02-04T04:35:18;12.07;;;7.07;;
68866;SDS011;56451;44.804;20.476;2024-02-04T04:38:05;15.75;;;7.43;;
68866;SDS011;56451;44.804;20.476;2024-02-04T04:40:51;10.98;;;6.68;;
68866;SDS011;56451;44.804;20.476;2024-02-04T04:43:37;12.07;;;7.35;;
68866;SDS011;56451;44.804;20.476;2024-02-04T04:46:23;13.50;;;6.82;;
68866;SDS011;56451;44.804;20.476;2024-02-04T04:49:09;14.60;;;7.43;;
68866;SDS011;56451;44.804;20.476;2024-02-04T04:51:55;13.55;;;7.57;;
68866;SDS011;56451;44.804;20.476;2024-02-04T04:54:41;16.63;;;8.05;;
68866;SDS011;56451;44.804;20.476;2024-02-04T04:57:28;13.85;;;8.02;;
68866;SDS011;56451;44.804;20.476;2024-02-04T05:00:17;14.43;;;7.80;;
68866;SDS011;56451;44.804;20.476;2024-02-04T05:03:14;13.53;;;7.17;;
68866;SDS011;56451;44.804;20.476;2024-02-04T05:06:04;11.05;;;6.65;;
68866;SDS011;56451;44.804;20.476;2024-02-04T05:08:51;12.82;;;6.95;;
68866;SDS011;56451;44.804;20.476;2024-02-04T05:11:37;12.45;;;7.07;;
68866;SDS011;56451;44.804;20.476;2024-02-04T05:14:03;12.65;;;6.72;;
68866;SDS011;56451;44.804;20.476;2024-02-04T05:16:49;10.97;;;6.23;;
68866;SDS011;56451;44.804;20.476;2024-02-04T05:19:35;10.95;;;6.47;;
68866;SDS011;56451;44.804;20.476;2024-02-04T05:22:21;11.90;;;6.65;;
68866;SDS011;56451;44.804;20.476;2024-02-04T05:25:11;10.75;;;6.43;;
68866;SDS011;56451;44.804;20.476;2024-02-04T05:27:57;10.40;;;6.15;;
68866;SDS011;56451;44.804;20.476;2024-02-04T05:30:43;12.30;;;6.57;;
68866;SDS011;56451;44.804;20.476;2024-02-04T05:33:29;16.42;;;7.40;;
68866;SDS011;56451;44.804;20.476;2024-02-04T05:36:18;12.60;;;6.90;;
68866;SDS011;56451;44.804;20.476;2024-02-04T05:42:00;10.70;;;6.57;;
68866;SDS011;56451;44.804;20.476;2024-02-04T05:44:46;15.20;;;6.93;;
68866;SDS011;56451;44.804;20.476;2024-02-04T05:47:34;11.85;;;6.05;;
68866;SDS011;56451;44.804;20.476;2024-02-04T05:50:20;10.73;;;6.30;;
68866;SDS011;56451;44.804;20.476;2024-02-04T05:53:09;11.18;;;6.70;;
68866;SDS011;56451;44.804;20.476;2024-02-04T05:55:54;9.55;;;5.97;;
68866;SDS011;56451;44.804;20.476;2024-02-04T05:58:41;13.30;;;6.77;;
68866;SDS011;56451;44.804;20.476;2024-02-04T06:01:27;11.38;;;5.90;;
68866;SDS011;56451;44.804;20.476;2024-02-04T06:04:13;10.75;;;5.75;;
68866;SDS011;56451;44.804;20.476;2024-02-04T06:06:43;10.82;;;5.22;;
68866;SDS011;56451;44.804;20.476;2024-02-04T06:09:35;10.00;;;5.57;;
68866;SDS011;56451;44.804;20.476;2024-02-04T06:12:21;7.38;;;4.90;;
68866;SDS011;56451;44.804;20.476;2024-02-04T06:15:12;12.60;;;6.30;;
68866;SDS011;56451;44.804;20.476;2024-02-04T06:17:58;11.80;;;6.07;;
68866;SDS011;56451;44.804;20.476;2024-02-04T06:20:44;11.18;;;6.18;;
68866;SDS011;56451;44.804;20.476;2024-02-04T06:23:31;11.67;;;6.27;;
68866;SDS011;56451;44.804;20.476;2024-02-04T06:26:17;12.43;;;6.45;;
68866;SDS011;56451;44.804;20.476;2024-02-04T06:29:03;13.90;;;7.43;;
68866;SDS011;56451;44.804;20.476;2024-02-04T06:31:49;18.83;;;8.13;;
68866;SDS011;56451;44.804;20.476;2024-02-04T06:34:36;17.02;;;8.98;;
68866;SDS011;56451;44.804;20.476;2024-02-04T06:37:22;15.57;;;9.23;;
68866;SDS011;56451;44.804;20.476;2024-02-04T06:40:09;17.05;;;9.18;;
68866;SDS011;56451;44.804;20.476;2024-02-04T06:42:56;20.00;;;10.40;;
68866;SDS011;56451;44.804;20.476;2024-02-04T06:45:43;19.63;;;10.18;;
68866;SDS011;56451;44.804;20.476;2024-02-04T06:48:29;17.92;;;10.02;;
68866;SDS011;56451;44.804;20.476;2024-02-04T06:51:15;20.67;;;10.27;;
68866;SDS011;56451;44.804;20.476;2024-02-04T06:54:01;21.13;;;11.25;;
68866;SDS011;56451;44.804;20.476;2024-02-04T06:56:50;17.67;;;10.38;;
68866;SDS011;56451;44.804;20.476;2024-02-04T06:59:38;21.15;;;10.50;;
68866;SDS011;56451;44.804;20.476;2024-02-04T07:02:24;17.67;;;10.20;;
68866;SDS011;56451;44.804;20.476;2024-02-04T07:05:10;20.33;;;10.37;;
68866;SDS011;56451;44.804;20.476;2024-02-04T07:07:56;19.38;;;10.07;;
68866;SDS011;56451;44.804;20.476;2024-02-04T07:10:45;19.42;;;10.73;;
68866;SDS011;56451;44.804;20.476;2024-02-04T07:13:31;20.05;;;10.77;;
68866;SDS011;56451;44.804;20.476;2024-02-04T07:16:18;20.55;;;11.10;;
68866;SDS011;56451;44.804;20.476;2024-02-04T07:19:03;19.50;;;11.30;;
68866;SDS011;56451;44.804;20.476;2024-02-04T07:21:50;26.80;;;12.15;;
68866;SDS011;56451;44.804;20.476;2024-02-04T07:24:35;27.05;;;13.70;;
68866;SDS011;56451;44.804;20.476;2024-02-04T07:27:22;22.67;;;12.52;;
68866;SDS011;56451;44.804;20.476;2024-02-04T07:30:08;23.80;;;13.05;;
68866;SDS011;56451;44.804;20.476;2024-02-04T07:32:55;28.37;;;13.37;;
68866;SDS011;56451;44.804;20.476;2024-02-04T07:35:42;28.67;;;14.48;;
68866;SDS011;56451;44.804;20.476;2024-02-04T07:38:28;26.73;;;13.05;;
68866;SDS011;56451;44.804;20.476;2024-02-04T07:41:15;26.83;;;13.27;;
68866;SDS011;56451;44.804;20.476;2024-02-04T07:44:01;25.45;;;13.18;;
68866;SDS011;56451;44.804;20.476;2024-02-04T07:46:49;26.33;;;13.23;;
68866;SDS011;56451;44.804;20.476;2024-02-04T07:49:35;25.60;;;14.02;;
68866;SDS011;56451;44.804;20.476;2024-02-04T07:52:22;23.30;;;12.68;;
68866;SDS011;56451;44.804;20.476;2024-02-04T07:55:08;20.55;;;12.70;;
68866;SDS011;56451;44.804;20.476;2024-02-04T07:57:54;23.85;;;13.25;;
68866;SDS011;56451;44.804;20.476;2024-02-04T08:00:40;22.00;;;12.27;;
68866;SDS011;56451;44.804;20.476;2024-02-04T08:03:28;23.35;;;13.35;;
68866;SDS011;56451;44.804;20.476;2024-02-04T08:06:14;23.83;;;12.73;;
68866;SDS011;56451;44.804;20.476;2024-02-04T08:09:06;19.55;;;11.90;;
68866;SDS011;56451;44.804;20.476;2024-02-04T08:11:52;23.80;;;12.38;;
68866;SDS011;56451;44.804;20.476;2024-02-04T08:14:18;21.97;;;10.87;;
68866;SDS011;56451;44.804;20.476;2024-02-04T08:17:05;22.98;;;11.43;;
68866;SDS011;56451;44.804;20.476;2024-02-04T08:19:53;19.83;;;11.73;;
68866;SDS011;56451;44.804;20.476;2024-02-04T08:22:39;22.42;;;11.85;;
68866;SDS011;56451;44.804;20.476;2024-02-04T08:25:06;24.38;;;12.30;;
68866;SDS011;56451;44.804;20.476;2024-02-04T08:27:53;19.60;;;11.87;;
68866;SDS011;56451;44.804;20.476;2024-02-04T08:30:39;20.33;;;11.90;;
68866;SDS011;56451;44.804;20.476;2024-02-04T08:33:29;20.40;;;12.32;;
68866;SDS011;56451;44.804;20.476;2024-02-04T08:36:15;27.52;;;12.90;;
68866;SDS011;56451;44.804;20.476;2024-02-04T08:38:53;22.85;;;12.70;;
68866;SDS011;56451;44.804;20.476;2024-02-04T08:41:39;20.97;;;11.50;;
68866;SDS011;56451;44.804;20.476;2024-02-04T08:44:27;18.38;;;10.02;;
68866;SDS011;56451;44.804;20.476;2024-02-04T08:47:13;15.55;;;9.63;;
68866;SDS011;56451;44.804;20.476;2024-02-04T08:50:00;17.52;;;9.82;;
68866;SDS011;56451;44.804;20.476;2024-02-04T08:52:48;19.17;;;9.98;;
68866;SDS011;56451;44.804;20.476;2024-02-04T08:55:15;17.10;;;9.87;;
68866;SDS011;56451;44.804;20.476;2024-02-04T08:58:01;16.67;;;9.88;;
68866;SDS011;56451;44.804;20.476;2024-02-04T09:00:52;41.75;;;17.58;;
68866;SDS011;56451;44.804;20.476;2024-02-04T09:03:18;27.52;;;12.60;;
68866;SDS011;56451;44.804;20.476;2024-02-04T09:06:09;33.53;;;16.35;;
68866;SDS011;56451;44.804;20.476;2024-02-04T09:08:39;16.47;;;9.90;;
68866;SDS011;56451;44.804;20.476;2024-02-04T09:11:26;21.00;;;10.50;;
68866;SDS011;56451;44.804;20.476;2024-02-04T09:14:12;17.45;;;9.55;;
68866;SDS011;56451;44.804;20.476;2024-02-04T09:16:58;16.83;;;9.10;;
68866;SDS011;56451;44.804;20.476;2024-02-04T09:19:45;17.15;;;9.75;;
68866;SDS011;56451;44.804;20.476;2024-02-04T09:22:31;15.53;;;8.03;;
68866;SDS011;56451;44.804;20.476;2024-02-04T09:25:17;15.07;;;7.30;;
68866;SDS011;56451;44.804;20.476;2024-02-04T09:28:04;15.13;;;7.95;;
68866;SDS011;56451;44.804;20.476;2024-02-04T09:30:50;14.95;;;8.40;;
68866;SDS011;56451;44.804;20.476;2024-02-04T09:33:37;15.27;;;7.82;;
68866;SDS011;56451;44.804;20.476;2024-02-04T09:36:23;13.63;;;7.50;;
68866;SDS011;56451;44.804;20.476;2024-02-04T09:39:10;14.07;;;8.23;;
68866;SDS011;56451;44.804;20.476;2024-02-04T09:41:37;11.52;;;6.85;;
68866;SDS011;56451;44.804;20.476;2024-02-04T09:44:24;10.35;;;6.82;;
68866;SDS011;56451;44.804;20.476;2024-02-04T09:47:11;16.23;;;8.48;;
68866;SDS011;56451;44.804;20.476;2024-02-04T09:49:59;14.67;;;8.63;;
68866;SDS011;56451;44.804;20.476;2024-02-04T09:52:48;18.27;;;8.95;;
68866;SDS011;56451;44.804;20.476;2024-02-04T09:55:42;13.95;;;8.60;;
68866;SDS011;56451;44.804;20.476;2024-02-04T10:36:49;13.95;;;8.00;;
68866;SDS011;56451;44.804;20.476;2024-02-04T10:39:36;14.00;;;8.25;;
68866;SDS011;56451;44.804;20.476;2024-02-04T10:42:26;10.93;;;6.68;;
68866;SDS011;56451;44.804;20.476;2024-02-04T10:44:53;12.43;;;7.00;;
68866;SDS011;56451;44.804;20.476;2024-02-04T10:47:40;9.50;;;6.18;;
68866;SDS011;56451;44.804;20.476;2024-02-04T10:50:32;11.85;;;5.88;;
68866;SDS011;56451;44.804;20.476;2024-02-04T10:53:21;12.15;;;7.82;;
68866;SDS011;56451;44.804;20.476;2024-02-04T10:56:08;8.25;;;5.45;;
68866;SDS011;56451;44.804;20.476;2024-02-04T10:59:07;14.27;;;5.43;;
68866;SDS011;56451;44.804;20.476;2024-02-04T11:01:56;8.18;;;5.10;;
68866;SDS011;56451;44.804;20.476;2024-02-04T11:04:43;10.38;;;6.10;;
68866;SDS011;56451;44.804;20.476;2024-02-04T11:07:31;11.95;;;6.82;;
68866;SDS011;56451;44.804;20.476;2024-02-04T11:10:10;13.18;;;7.93;;
68866;SDS011;56451;44.804;20.476;2024-02-04T11:12:57;13.53;;;8.13;;
68866;SDS011;56451;44.804;20.476;2024-02-04T11:15:49;16.75;;;7.78;;
68866;SDS011;56451;44.804;20.476;2024-02-04T11:18:54;11.82;;;7.10;;
68866;SDS011;56451;44.804;20.476;2024-02-04T11:27:51;13.93;;;7.97;;
68866;SDS011;56451;44.804;20.476;2024-02-04T11:30:39;12.00;;;8.15;;
68866;SDS011;56451;44.804;20.476;2024-02-04T11:33:26;13.70;;;7.65;;
68866;SDS011;56451;44.804;20.476;2024-02-04T11:36:15;12.18;;;7.65;;
68866;SDS011;56451;44.804;20.476;2024-02-04T11:39:10;10.57;;;6.35;;
68866;SDS011;56451;44.804;20.476;2024-02-04T11:41:58;4.27;;;2.50;;
68866;SDS011;56451;44.804;20.476;2024-02-04T11:44:37;3.03;;;1.77;;
68866;SDS011;56451;44.804;20.476;2024-02-04T11:47:26;3.45;;;1.60;;
68866;SDS011;56451;44.804;20.476;2024-02-04T11:50:13;2.80;;;1.38;;
68866;SDS011;56451;44.804;20.476;2024-02-04T11:53:15;3.97;;;1.70;;
68866;SDS011;56451;44.804;20.476;2024-02-04T11:56:01;3.20;;;1.67;;
68866;SDS011;56451;44.804;20.476;2024-02-04T11:58:49;3.50;;;1.77;;
68866;SDS011;56451;44.804;20.476;2024-02-04T12:01:35;3.15;;;1.55;;
68866;SDS011;56451;44.804;20.476;2024-02-04T12:04:22;2.67;;;1.50;;
68866;SDS011;56451;44.804;20.476;2024-02-04T12:07:08;2.42;;;1.63;;
68866;SDS011;56451;44.804;20.476;2024-02-04T12:09:56;2.40;;;1.40;;
68866;SDS011;56451;44.804;20.476;2024-02-04T12:12:44;2.75;;;1.38;;
68866;SDS011;56451;44.804;20.476;2024-02-04T12:15:36;2.03;;;1.30;;
68866;SDS011;56451;44.804;20.476;2024-02-04T12:18:25;6.60;;;1.42;;
68866;SDS011;56451;44.804;20.476;2024-02-04T12:21:14;5.10;;;1.52;;
68866;SDS011;56451;44.804;20.476;2024-02-04T12:24:00;2.77;;;1.07;;
68866;SDS011;56451;44.804;20.476;2024-02-04T12:26:48;2.38;;;1.40;;
68866;SDS011;56451;44.804;20.476;2024-02-04T12:29:34;1.90;;;1.00;;
68866;SDS011;56451;44.804;20.476;2024-02-04T12:32:24;1.92;;;1.10;;
68866;SDS011;56451;44.804;20.476;2024-02-04T12:35:14;3.33;;;1.20;;
68866;SDS011;56451;44.804;20.476;2024-02-04T12:38:07;1.53;;;0.83;;
68866;SDS011;56451;44.804;20.476;2024-02-04T12:41:01;1.50;;;0.82;;
68866;SDS011;56451;44.804;20.476;2024-02-04T12:43:52;1.95;;;0.98;;
68866;SDS011;56451;44.804;20.476;2024-02-04T12:46:42;3.40;;;0.93;;
68866;SDS011;56451;44.804;20.476;2024-02-04T12:49:08;3.15;;;1.23;;
68866;SDS011;56451;44.804;20.476;2024-02-04T12:52:03;2.53;;;1.33;;
68866;SDS011;56451;44.804;20.476;2024-02-04T12:54:39;3.10;;;1.13;;
68866;SDS011;56451;44.804;20.476;2024-02-04T12:57:28;3.22;;;1.42;;
68866;SDS011;56451;44.804;20.476;2024-02-04T13:00:20;2.80;;;1.80;;
68866;SDS011;56451;44.804;20.476;2024-02-04T13:03:07;4.10;;;1.40;;
68866;SDS011;56451;44.804;20.476;2024-02-04T13:05:58;3.57;;;1.53;;
68866;SDS011;56451;44.804;20.476;2024-02-04T13:08:53;2.58;;;1.05;;
68866;SDS011;56451;44.804;20.476;2024-02-04T13:11:44;3.28;;;1.63;;
68866;SDS011;56451;44.804;20.476;2024-02-04T13:14:31;2.47;;;1.13;;
68866;SDS011;56451;44.804;20.476;2024-02-04T13:16:58;3.30;;;1.30;;
68866;SDS011;56451;44.804;20.476;2024-02-04T13:19:51;3.60;;;1.30;;
68866;SDS011;56451;44.804;20.476;2024-02-04T13:22:37;3.63;;;1.42;;
68866;SDS011;56451;44.804;20.476;2024-02-04T13:25:25;2.80;;;1.83;;
68866;SDS011;56451;44.804;20.476;2024-02-04T13:28:12;1.70;;;0.90;;
68866;SDS011;56451;44.804;20.476;2024-02-04T13:30:58;3.08;;;1.38;;
68866;SDS011;56451;44.804;20.476;2024-02-04T13:33:44;2.97;;;1.57;;
68866;SDS011;56451;44.804;20.476;2024-02-04T13:36:37;2.70;;;1.30;;
68866;SDS011;56451;44.804;20.476;2024-02-04T13:39:23;2.75;;;1.30;;
68866;SDS011;56451;44.804;20.476;2024-02-04T13:42:10;1.88;;;1.38;;
68866;SDS011;56451;44.804;20.476;2024-02-04T13:44:57;3.45;;;2.05;;
68866;SDS011;56451;44.804;20.476;2024-02-04T13:47:44;4.20;;;1.60;;
68866;SDS011;56451;44.804;20.476;2024-02-04T13:50:32;3.30;;;1.90;;
68866;SDS011;56451;44.804;20.476;2024-02-04T13:53:18;3.70;;;1.90;;
68866;SDS011;56451;44.804;20.476;2024-02-04T13:56:05;3.38;;;2.08;;
68866;SDS011;56451;44.804;20.476;2024-02-04T13:58:41;5.47;;;1.95;;
68866;SDS011;56451;44.804;20.476;2024-02-04T14:01:28;4.03;;;1.83;;
68866;SDS011;56451;44.804;20.476;2024-02-04T14:04:14;5.35;;;1.90;;
68866;SDS011;56451;44.804;20.476;2024-02-04T14:07:00;3.63;;;1.98;;
68866;SDS011;56451;44.804;20.476;2024-02-04T14:09:50;5.07;;;1.92;;
68866;SDS011;56451;44.804;20.476;2024-02-04T14:12:37;4.43;;;2.08;;
68866;SDS011;56451;44.804;20.476;2024-02-04T14:15:23;4.77;;;2.67;;
68866;SDS011;56451;44.804;20.476;2024-02-04T14:17:50;4.90;;;2.58;;
68866;SDS011;56451;44.804;20.476;2024-02-04T14:20:36;3.95;;;1.92;;
68866;SDS011;56451;44.804;20.476;2024-02-04T14:23:22;5.07;;;2.95;;
68866;SDS011;56451;44.804;20.476;2024-02-04T14:26:15;4.80;;;2.15;;
68866;SDS011;56451;44.804;20.476;2024-02-04T14:29:05;4.07;;;2.47;;
68866;SDS011;56451;44.804;20.476;2024-02-04T14:31:52;5.47;;;2.40;;
68866;SDS011;56451;44.804;20.476;2024-02-04T14:34:38;5.43;;;2.50;;
68866;SDS011;56451;44.804;20.476;2024-02-04T14:37:08;6.00;;;2.80;;
68866;SDS011;56451;44.804;20.476;2024-02-04T14:39:54;5.40;;;3.33;;
68866;SDS011;56451;44.804;20.476;2024-02-04T14:42:41;4.33;;;2.20;;
68866;SDS011;56451;44.804;20.476;2024-02-04T14:45:30;6.03;;;3.05;;
68866;SDS011;56451;44.804;20.476;2024-02-04T14:48:16;4.70;;;2.42;;
68866;SDS011;56451;44.804;20.476;2024-02-04T14:51:04;5.97;;;3.28;;
68866;SDS011;56451;44.804;20.476;2024-02-04T14:53:51;6.55;;;3.60;;
68866;SDS011;56451;44.804;20.476;2024-02-04T14:56:38;7.40;;;3.20;;
68866;SDS011;56451;44.804;20.476;2024-02-04T14:59:28;5.93;;;3.28;;
68866;SDS011;56451;44.804;20.476;2024-02-04T15:02:18;6.80;;;3.50;;
68866;SDS011;56451;44.804;20.476;2024-02-04T15:05:06;7.38;;;3.58;;
68866;SDS011;56451;44.804;20.476;2024-02-04T15:07:52;8.82;;;3.75;;
68866;SDS011;56451;44.804;20.476;2024-02-04T15:10:43;8.37;;;3.97;;
68866;SDS011;56451;44.804;20.476;2024-02-04T15:13:30;7.05;;;3.92;;
68866;SDS011;56451;44.804;20.476;2024-02-04T15:16:18;6.03;;;3.85;;
68866;SDS011;56451;44.804;20.476;2024-02-04T15:19:25;7.20;;;3.75;;
68866;SDS011;56451;44.804;20.476;2024-02-04T15:22:13;8.70;;;4.00;;
68866;SDS011;56451;44.804;20.476;2024-02-04T15:25:00;6.23;;;3.83;;
68866;SDS011;56451;44.804;20.476;2024-02-04T15:27:57;10.45;;;4.47;;
68866;SDS011;56451;44.804;20.476;2024-02-04T15:30:44;7.18;;;4.05;;
68866;SDS011;56451;44.804;20.476;2024-02-04T15:33:11;8.80;;;4.10;;
68866;SDS011;56451;44.804;20.476;2024-02-04T15:35:58;9.18;;;4.20;;
68866;SDS011;56451;44.804;20.476;2024-02-04T15:38:45;9.10;;;4.83;;
68866;SDS011;56451;44.804;20.476;2024-02-04T15:41:32;8.98;;;4.97;;
68866;SDS011;56451;44.804;20.476;2024-02-04T15:44:18;7.35;;;4.90;;
68866;SDS011;56451;44.804;20.476;2024-02-04T15:47:05;9.38;;;4.57;;
68866;SDS011;56451;44.804;20.476;2024-02-04T15:49:57;8.52;;;4.78;;
68866;SDS011;56451;44.804;20.476;2024-02-04T15:52:44;9.33;;;4.77;;
68866;SDS011;56451;44.804;20.476;2024-02-04T15:55:30;8.10;;;5.07;;
68866;SDS011;56451;44.804;20.476;2024-02-04T15:58:17;9.73;;;5.35;;
68866;SDS011;56451;44.804;20.476;2024-02-04T16:01:06;7.88;;;4.97;;
68866;SDS011;56451;44.804;20.476;2024-02-04T16:04:03;10.38;;;4.70;;
68866;SDS011;56451;44.804;20.476;2024-02-04T16:06:50;7.80;;;4.37;;
68866;SDS011;56451;44.804;20.476;2024-02-04T16:09:36;10.25;;;5.63;;
68866;SDS011;56451;44.804;20.476;2024-02-04T16:12:25;10.15;;;5.88;;
68866;SDS011;56451;44.804;20.476;2024-02-04T16:15:14;9.25;;;5.53;;
68866;SDS011;56451;44.804;20.476;2024-02-04T16:18:03;9.77;;;5.28;;
68866;SDS011;56451;44.804;20.476;2024-02-04T16:20:53;9.27;;;6.17;;
68866;SDS011;56451;44.804;20.476;2024-02-04T16:23:43;7.88;;;5.18;;
68866;SDS011;56451;44.804;20.476;2024-02-04T16:26:30;8.85;;;5.10;;
68866;SDS011;56451;44.804;20.476;2024-02-04T16:28:58;11.50;;;6.07;;
68866;SDS011;56451;44.804;20.476;2024-02-04T16:31:30;8.75;;;5.32;;
68866;SDS011;56451;44.804;20.476;2024-02-04T16:34:22;9.13;;;5.13;;
68866;SDS011;56451;44.804;20.476;2024-02-04T16:36:57;14.80;;;6.68;;
68866;SDS011;56451;44.804;20.476;2024-02-04T16:39:46;10.93;;;6.55;;
68866;SDS011;56451;44.804;20.476;2024-02-04T16:42:33;10.50;;;6.50;;
68866;SDS011;56451;44.804;20.476;2024-02-04T16:45:14;15.77;;;7.43;;
68866;SDS011;56451;44.804;20.476;2024-02-04T16:47:43;17.80;;;7.90;;
68866;SDS011;56451;44.804;20.476;2024-02-04T16:50:35;13.50;;;8.43;;
68866;SDS011;56451;44.804;20.476;2024-02-04T16:53:22;14.73;;;8.75;;
68866;SDS011;56451;44.804;20.476;2024-02-04T16:56:32;12.95;;;7.20;;
68866;SDS011;56451;44.804;20.476;2024-02-04T16:59:18;15.07;;;8.23;;
68866;SDS011;56451;44.804;20.476;2024-02-04T17:01:45;19.53;;;8.87;;
68866;SDS011;56451;44.804;20.476;2024-02-04T17:04:33;17.02;;;8.50;;
68866;SDS011;56451;44.804;20.476;2024-02-04T17:07:19;17.90;;;9.45;;
68866;SDS011;56451;44.804;20.476;2024-02-04T17:10:06;16.58;;;9.63;;